sensor_id;sensor_type;location;lat;lon;timestamp;temperature;humidity
43185;DHT22;28803;52.308;19.096;2023-04-03T00:01:09;-0.40;99.90
43185;DHT22;28803;52.308;19.096;2023-04-03T00:03:37;-0.40;99.90
43185;DHT22;28803;52.308;19.096;2023-04-03T00:06:04;-0.50;99.90
43185;DHT22;28803;52.308;19.096;2023-04-03T00:08:34;-0.50;99.90
43185;DHT22;28803;52.308;19.096;2023-04-03T00:11:02;-0.50;99.90
43185;DHT22;28803;52.308;19.096;2023-04-03T00:13:31;-0.50;99.90
43185;DHT22;28803;52.308;19.096;2023-04-03T00:15:58;-0.50;99.90
43185;DHT22;28803;52.308;19.096;2023-04-03T00:18:26;-0.50;99.90
43185;DHT22;28803;52.308;19.096;2023-04-03T00:20:53;-0.50;99.90
43185;DHT22;28803;52.308;19.096;2023-04-03T00:23:20;-0.50;99.90
43185;DHT22;28803;52.308;19.096;2023-04-03T00:25:47;-0.20;99.90
43185;DHT22;28803;52.308;19.096;2023-04-03T00:28:15;-0.60;99.90
43185;DHT22;28803;52.308;19.096;2023-04-03T00:30:42;-0.60;99.90
43185;DHT22;28803;52.308;19.096;2023-04-03T00:33:12;-0.60;99.90
43185;DHT22;28803;52.308;19.096;2023-04-03T00:35:40;-0.60;99.90
43185;DHT22;28803;52.308;19.096;2023-04-03T00:38:08;-0.60;99.90
43185;DHT22;28803;52.308;19.096;2023-04-03T00:40:42;-0.60;99.90
43185;DHT22;28803;52.308;19.096;2023-04-03T00:43:23;-0.70;99.90
43185;DHT22;28803;52.308;19.096;2023-04-03T00:45:52;-0.60;99.90
43185;DHT22;28803;52.308;19.096;2023-04-03T00:48:26;-0.70;99.90
43185;DHT22;28803;52.308;19.096;2023-04-03T00:50:54;-0.70;99.90
43185;DHT22;28803;52.308;19.096;2023-04-03T00:53:27;-0.70;99.90
43185;DHT22;28803;52.308;19.096;2023-04-03T00:55:55;-0.70;99.90
43185;DHT22;28803;52.308;19.096;2023-04-03T00:58:33;-0.70;99.90
43185;DHT22;28803;52.308;19.096;2023-04-03T01:01:06;-0.70;99.90
43185;DHT22;28803;52.308;19.096;2023-04-03T01:03:35;-0.80;99.90
43185;DHT22;28803;52.308;19.096;2023-04-03T01:06:02;-0.80;99.90
43185;DHT22;28803;52.308;19.096;2023-04-03T01:08:30;-0.90;99.90
43185;DHT22;28803;52.308;19.096;2023-04-03T01:10:57;-0.90;99.90
43185;DHT22;28803;52.308;19.096;2023-04-03T01:13:32;-0.80;99.90
43185;DHT22;28803;52.308;19.096;2023-04-03T01:16:04;-0.80;99.90
43185;DHT22;28803;52.308;19.096;2023-04-03T01:18:33;-0.80;99.90
43185;DHT22;28803;52.308;19.096;2023-04-03T01:26:18;-0.90;99.90
43185;DHT22;28803;52.308;19.096;2023-04-03T01:28:46;-0.80;99.90
43185;DHT22;28803;52.308;19.096;2023-04-03T01:31:25;-0.80;99.90
43185;DHT22;28803;52.308;19.096;2023-04-03T01:33:55;-0.90;99.90
43185;DHT22;28803;52.308;19.096;2023-04-03T01:36:24;-0.90;99.90
43185;DHT22;28803;52.308;19.096;2023-04-03T01:38:53;-0.90;99.90
43185;DHT22;28803;52.308;19.096;2023-04-03T01:41:20;-0.90;99.90
43185;DHT22;28803;52.308;19.096;2023-04-03T01:43:50;-0.90;99.90
43185;DHT22;28803;52.308;19.096;2023-04-03T01:46:18;-0.90;99.90
43185;DHT22;28803;52.308;19.096;2023-04-03T01:48:46;-0.90;99.90
43185;DHT22;28803;52.308;19.096;2023-04-03T01:51:13;-0.90;99.90
43185;DHT22;28803;52.308;19.096;2023-04-03T01:53:40;-0.90;99.90
43185;DHT22;28803;52.308;19.096;2023-04-03T01:56:08;-0.90;99.90
43185;DHT22;28803;52.308;19.096;2023-04-03T01:58:35;-0.90;99.90
43185;DHT22;28803;52.308;19.096;2023-04-03T02:01:03;-0.90;99.90
43185;DHT22;28803;52.308;19.096;2023-04-03T02:03:30;-1.00;99.90
43185;DHT22;28803;52.308;19.096;2023-04-03T02:05:58;-1.00;99.90
43185;DHT22;28803;52.308;19.096;2023-04-03T02:08:25;-1.00;99.90
43185;DHT22;28803;52.308;19.096;2023-04-03T02:10:53;-0.70;99.90
43185;DHT22;28803;52.308;19.096;2023-04-03T02:13:20;-1.00;99.90
43185;DHT22;28803;52.308;19.096;2023-04-03T02:15:47;-1.00;99.90
43185;DHT22;28803;52.308;19.096;2023-04-03T02:18:15;-1.00;99.90
43185;DHT22;28803;52.308;19.096;2023-04-03T02:20:42;-1.00;99.90
43185;DHT22;28803;52.308;19.096;2023-04-03T02:23:10;-1.00;99.90
43185;DHT22;28803;52.308;19.096;2023-04-03T02:25:37;-1.10;99.90
43185;DHT22;28803;52.308;19.096;2023-04-03T02:28:05;-1.10;99.90
43185;DHT22;28803;52.308;19.096;2023-04-03T02:30:32;-1.10;99.90
43185;DHT22;28803;52.308;19.096;2023-04-03T02:33:00;-1.10;99.90
43185;DHT22;28803;52.308;19.096;2023-04-03T02:35:27;-1.10;99.90
43185;DHT22;28803;52.308;19.096;2023-04-03T02:37:54;-1.10;99.90
43185;DHT22;28803;52.308;19.096;2023-04-03T02:40:22;-1.10;99.90
43185;DHT22;28803;52.308;19.096;2023-04-03T02:42:49;-1.10;99.90
43185;DHT22;28803;52.308;19.096;2023-04-03T02:45:17;-1.10;99.90
43185;DHT22;28803;52.308;19.096;2023-04-03T02:47:44;-1.20;99.90
43185;DHT22;28803;52.308;19.096;2023-04-03T02:50:11;-1.20;99.90
43185;DHT22;28803;52.308;19.096;2023-04-03T02:52:39;-1.20;99.90
43185;DHT22;28803;52.308;19.096;2023-04-03T02:55:06;-1.20;99.90
43185;DHT22;28803;52.308;19.096;2023-04-03T02:57:34;-1.20;99.90
43185;DHT22;28803;52.308;19.096;2023-04-03T03:00:02;-1.30;99.90
43185;DHT22;28803;52.308;19.096;2023-04-03T03:02:30;-1.30;99.90
43185;DHT22;28803;52.308;19.096;2023-04-03T03:04:57;-1.30;99.90
43185;DHT22;28803;52.308;19.096;2023-04-03T03:07:24;-1.30;99.90
43185;DHT22;28803;52.308;19.096;2023-04-03T03:09:51;-1.30;99.90
43185;DHT22;28803;52.308;19.096;2023-04-03T03:12:18;-1.30;99.90
43185;DHT22;28803;52.308;19.096;2023-04-03T03:14:48;-1.30;99.90
43185;DHT22;28803;52.308;19.096;2023-04-03T03:17:16;-1.30;99.90
43185;DHT22;28803;52.308;19.096;2023-04-03T03:19:43;-1.20;99.90
43185;DHT22;28803;52.308;19.096;2023-04-03T03:22:12;-1.30;99.90
43185;DHT22;28803;52.308;19.096;2023-04-03T03:24:39;-1.30;99.90
43185;DHT22;28803;52.308;19.096;2023-04-03T03:27:07;-1.30;99.90
43185;DHT22;28803;52.308;19.096;2023-04-03T03:29:34;-1.30;99.90
43185;DHT22;28803;52.308;19.096;2023-04-03T03:32:01;-1.30;99.90
43185;DHT22;28803;52.308;19.096;2023-04-03T03:34:28;-1.40;99.90
43185;DHT22;28803;52.308;19.096;2023-04-03T03:36:55;-1.40;99.90
43185;DHT22;28803;52.308;19.096;2023-04-03T03:39:22;-1.40;99.90
43185;DHT22;28803;52.308;19.096;2023-04-03T03:41:50;-1.40;99.90
43185;DHT22;28803;52.308;19.096;2023-04-03T03:44:17;-1.40;99.90
43185;DHT22;28803;52.308;19.096;2023-04-03T03:46:44;-1.40;99.90
43185;DHT22;28803;52.308;19.096;2023-04-03T03:49:12;-1.40;99.90
43185;DHT22;28803;52.308;19.096;2023-04-03T03:51:39;-1.40;99.90
43185;DHT22;28803;52.308;19.096;2023-04-03T03:54:07;-1.40;99.90
43185;DHT22;28803;52.308;19.096;2023-04-03T03:56:35;-1.40;99.90
43185;DHT22;28803;52.308;19.096;2023-04-03T03:59:03;-1.40;99.90
43185;DHT22;28803;52.308;19.096;2023-04-03T04:01:30;-1.40;99.90
43185;DHT22;28803;52.308;19.096;2023-04-03T04:03:57;-1.40;99.90
43185;DHT22;28803;52.308;19.096;2023-04-03T04:06:25;-1.40;99.90
43185;DHT22;28803;52.308;19.096;2023-04-03T04:08:52;-1.40;99.90
43185;DHT22;28803;52.308;19.096;2023-04-03T04:11:20;-1.40;99.90
43185;DHT22;28803;52.308;19.096;2023-04-03T04:13:48;-1.40;99.90
43185;DHT22;28803;52.308;19.096;2023-04-03T04:16:16;-1.40;99.90
43185;DHT22;28803;52.308;19.096;2023-04-03T04:18:43;-1.40;99.90
43185;DHT22;28803;52.308;19.096;2023-04-03T04:21:10;-1.40;99.90
43185;DHT22;28803;52.308;19.096;2023-04-03T04:23:37;-1.40;99.90
43185;DHT22;28803;52.308;19.096;2023-04-03T04:26:04;-1.30;99.90
43185;DHT22;28803;52.308;19.096;2023-04-03T04:28:31;-1.30;99.90
43185;DHT22;28803;52.308;19.096;2023-04-03T04:30:59;-1.40;99.90
43185;DHT22;28803;52.308;19.096;2023-04-03T04:33:26;-1.40;99.90
43185;DHT22;28803;52.308;19.096;2023-04-03T04:35:53;2.60;99.90
43185;DHT22;28803;52.308;19.096;2023-04-03T04:38:20;-1.50;99.90
43185;DHT22;28803;52.308;19.096;2023-04-03T04:40:48;-1.40;99.90
43185;DHT22;28803;52.308;19.096;2023-04-03T04:43:17;-1.40;99.90
43185;DHT22;28803;52.308;19.096;2023-04-03T04:45:44;-1.40;99.90
43185;DHT22;28803;52.308;19.096;2023-04-03T04:48:11;-1.30;99.90
43185;DHT22;28803;52.308;19.096;2023-04-03T04:50:39;-1.30;99.90
43185;DHT22;28803;52.308;19.096;2023-04-03T04:53:06;-1.20;99.90
43185;DHT22;28803;52.308;19.096;2023-04-03T04:55:34;-1.20;99.90
43185;DHT22;28803;52.308;19.096;2023-04-03T04:58:01;-1.10;99.90
43185;DHT22;28803;52.308;19.096;2023-04-03T05:00:29;-1.10;99.90
43185;DHT22;28803;52.308;19.096;2023-04-03T05:02:56;-1.10;99.90
43185;DHT22;28803;52.308;19.096;2023-04-03T05:05:23;-1.10;99.90
43185;DHT22;28803;52.308;19.096;2023-04-03T05:07:50;-1.00;99.90
43185;DHT22;28803;52.308;19.096;2023-04-03T05:10:18;-1.00;99.90
43185;DHT22;28803;52.308;19.096;2023-04-03T05:12:45;-1.00;99.90
43185;DHT22;28803;52.308;19.096;2023-04-03T05:15:12;-1.00;99.90
43185;DHT22;28803;52.308;19.096;2023-04-03T05:17:39;-0.90;99.90
43185;DHT22;28803;52.308;19.096;2023-04-03T05:20:07;-0.90;99.90
43185;DHT22;28803;52.308;19.096;2023-04-03T05:22:34;-0.80;99.90
43185;DHT22;28803;52.308;19.096;2023-04-03T05:25:01;-0.70;99.90
43185;DHT22;28803;52.308;19.096;2023-04-03T05:27:28;-0.70;99.90
43185;DHT22;28803;52.308;19.096;2023-04-03T05:29:56;-0.70;99.90
43185;DHT22;28803;52.308;19.096;2023-04-03T05:32:24;-0.60;99.90
43185;DHT22;28803;52.308;19.096;2023-04-03T05:34:52;-0.50;99.90
43185;DHT22;28803;52.308;19.096;2023-04-03T05:37:20;-0.40;99.90
43185;DHT22;28803;52.308;19.096;2023-04-03T05:39:47;-0.30;99.90
43185;DHT22;28803;52.308;19.096;2023-04-03T05:42:14;-0.20;99.90
43185;DHT22;28803;52.308;19.096;2023-04-03T05:44:42;-0.10;99.90
43185;DHT22;28803;52.308;19.096;2023-04-03T05:47:10;-0.10;99.90
43185;DHT22;28803;52.308;19.096;2023-04-03T05:49:38;0.10;99.90
43185;DHT22;28803;52.308;19.096;2023-04-03T05:52:21;0.30;99.90
43185;DHT22;28803;52.308;19.096;2023-04-03T05:54:49;0.60;99.90
43185;DHT22;28803;52.308;19.096;2023-04-03T05:57:17;1.40;99.90
43185;DHT22;28803;52.308;19.096;2023-04-03T05:59:46;1.10;99.90
43185;DHT22;28803;52.308;19.096;2023-04-03T06:02:16;1.30;99.90
43185;DHT22;28803;52.308;19.096;2023-04-03T06:04:44;1.50;99.90
43185;DHT22;28803;52.308;19.096;2023-04-03T06:07:20;1.80;99.90
43185;DHT22;28803;52.308;19.096;2023-04-03T06:09:50;2.10;99.90
43185;DHT22;28803;52.308;19.096;2023-04-03T06:12:18;2.50;99.90
43185;DHT22;28803;52.308;19.096;2023-04-03T06:14:46;2.60;99.90
43185;DHT22;28803;52.308;19.096;2023-04-03T06:17:15;2.80;99.90
43185;DHT22;28803;52.308;19.096;2023-04-03T06:19:44;3.00;99.90
43185;DHT22;28803;52.308;19.096;2023-04-03T06:22:13;3.30;99.90
43185;DHT22;28803;52.308;19.096;2023-04-03T06:24:41;3.40;99.90
43185;DHT22;28803;52.308;19.096;2023-04-03T06:27:10;3.50;99.90
43185;DHT22;28803;52.308;19.096;2023-04-03T06:29:38;3.80;98.40
43185;DHT22;28803;52.308;19.096;2023-04-03T06:32:05;4.30;99.50
43185;DHT22;28803;52.308;19.096;2023-04-03T06:34:33;4.30;95.20
43185;DHT22;28803;52.308;19.096;2023-04-03T06:37:00;4.00;94.40
43185;DHT22;28803;52.308;19.096;2023-04-03T06:39:28;4.00;95.70
43185;DHT22;28803;52.308;19.096;2023-04-03T06:41:56;4.40;95.40
43185;DHT22;28803;52.308;19.096;2023-04-03T06:44:23;4.60;93.30
43185;DHT22;28803;52.308;19.096;2023-04-03T06:46:50;4.70;92.20
43185;DHT22;28803;52.308;19.096;2023-04-03T06:49:19;5.30;92.60
43185;DHT22;28803;52.308;19.096;2023-04-03T06:51:46;5.50;88.70
43185;DHT22;28803;52.308;19.096;2023-04-03T06:54:13;5.70;90.00
43185;DHT22;28803;52.308;19.096;2023-04-03T06:56:41;5.80;86.70
43185;DHT22;28803;52.308;19.096;2023-04-03T06:59:09;5.80;87.20
43185;DHT22;28803;52.308;19.096;2023-04-03T07:01:38;5.40;83.30
43185;DHT22;28803;52.308;19.096;2023-04-03T07:04:05;5.40;84.40
43185;DHT22;28803;52.308;19.096;2023-04-03T07:06:32;5.80;83.00
43185;DHT22;28803;52.308;19.096;2023-04-03T07:09:00;5.80;83.70
43185;DHT22;28803;52.308;19.096;2023-04-03T07:11:28;6.00;78.60
43185;DHT22;28803;52.308;19.096;2023-04-03T07:13:56;5.70;80.40
43185;DHT22;28803;52.308;19.096;2023-04-03T07:16:23;5.70;84.90
43185;DHT22;28803;52.308;19.096;2023-04-03T07:18:50;6.00;77.60
43185;DHT22;28803;52.308;19.096;2023-04-03T07:21:17;5.30;76.50
43185;DHT22;28803;52.308;19.096;2023-04-03T07:23:45;5.40;78.90
43185;DHT22;28803;52.308;19.096;2023-04-03T07:26:12;5.60;78.70
43185;DHT22;28803;52.308;19.096;2023-04-03T07:28:39;5.80;79.20
43185;DHT22;28803;52.308;19.096;2023-04-03T07:31:11;6.10;78.20
43185;DHT22;28803;52.308;19.096;2023-04-03T07:33:41;6.00;77.70
43185;DHT22;28803;52.308;19.096;2023-04-03T07:36:09;6.10;77.50
43185;DHT22;28803;52.308;19.096;2023-04-03T07:38:39;6.50;75.30
43185;DHT22;28803;52.308;19.096;2023-04-03T07:41:12;6.60;76.30
43185;DHT22;28803;52.308;19.096;2023-04-03T07:43:41;6.60;75.30
43185;DHT22;28803;52.308;19.096;2023-04-03T07:46:09;6.20;73.80
43185;DHT22;28803;52.308;19.096;2023-04-03T07:48:36;6.30;70.30
43185;DHT22;28803;52.308;19.096;2023-04-03T07:51:04;6.60;72.30
43185;DHT22;28803;52.308;19.096;2023-04-03T07:53:33;7.20;69.40
43185;DHT22;28803;52.308;19.096;2023-04-03T07:56:00;7.10;69.80
43185;DHT22;28803;52.308;19.096;2023-04-03T07:58:30;6.60;69.80
43185;DHT22;28803;52.308;19.096;2023-04-03T08:00:57;6.60;72.10
43185;DHT22;28803;52.308;19.096;2023-04-03T08:03:24;7.20;70.70
43185;DHT22;28803;52.308;19.096;2023-04-03T08:05:52;7.70;70.30
43185;DHT22;28803;52.308;19.096;2023-04-03T08:08:23;6.60;69.70
43185;DHT22;28803;52.308;19.096;2023-04-03T08:10:54;5.80;74.10
43185;DHT22;28803;52.308;19.096;2023-04-03T08:13:22;6.20;71.90
43185;DHT22;28803;52.308;19.096;2023-04-03T08:15:50;6.80;73.70
43185;DHT22;28803;52.308;19.096;2023-04-03T08:18:18;8.20;69.70
43185;DHT22;28803;52.308;19.096;2023-04-03T08:20:48;9.10;66.30
43185;DHT22;28803;52.308;19.096;2023-04-03T08:23:15;8.60;67.80
43185;DHT22;28803;52.308;19.096;2023-04-03T08:25:46;8.60;70.20
43185;DHT22;28803;52.308;19.096;2023-04-03T08:28:13;8.80;66.50
43185;DHT22;28803;52.308;19.096;2023-04-03T08:30:41;8.00;64.60
43185;DHT22;28803;52.308;19.096;2023-04-03T08:33:10;8.50;70.10
43185;DHT22;28803;52.308;19.096;2023-04-03T08:35:41;9.20;65.00
43185;DHT22;28803;52.308;19.096;2023-04-03T08:38:09;9.00;65.00
43185;DHT22;28803;52.308;19.096;2023-04-03T08:40:37;8.70;65.40
43185;DHT22;28803;52.308;19.096;2023-04-03T08:43:27;8.80;64.10
43185;DHT22;28803;52.308;19.096;2023-04-03T08:45:57;8.70;64.50
43185;DHT22;28803;52.308;19.096;2023-04-03T08:48:34;9.40;63.50
43185;DHT22;28803;52.308;19.096;2023-04-03T08:51:08;8.20;65.50
43185;DHT22;28803;52.308;19.096;2023-04-03T08:53:54;6.30;70.40
43185;DHT22;28803;52.308;19.096;2023-04-03T08:56:23;6.00;72.20
43185;DHT22;28803;52.308;19.096;2023-04-03T08:59:00;6.80;70.30
43185;DHT22;28803;52.308;19.096;2023-04-03T09:01:39;8.70;65.20
43185;DHT22;28803;52.308;19.096;2023-04-03T09:04:13;8.80;65.70
43185;DHT22;28803;52.308;19.096;2023-04-03T09:06:50;10.20;61.30
43185;DHT22;28803;52.308;19.096;2023-04-03T09:17:53;7.70;64.10
43185;DHT22;28803;52.308;19.096;2023-04-03T09:22:54;6.70;68.90
43185;DHT22;28803;52.308;19.096;2023-04-03T09:25:31;8.50;66.20
43185;DHT22;28803;52.308;19.096;2023-04-03T09:28:00;9.90;61.10
43185;DHT22;28803;52.308;19.096;2023-04-03T09:30:29;9.70;60.70
43185;DHT22;28803;52.308;19.096;2023-04-03T09:32:57;9.10;60.20
43185;DHT22;28803;52.308;19.096;2023-04-03T09:35:31;9.20;61.10
43185;DHT22;28803;52.308;19.096;2023-04-03T09:40:43;9.00;60.00
43185;DHT22;28803;52.308;19.096;2023-04-03T09:45:45;9.40;56.50
43185;DHT22;28803;52.308;19.096;2023-04-03T09:55:56;10.40;55.80
43185;DHT22;28803;52.308;19.096;2023-04-03T09:58:29;10.50;57.20
43185;DHT22;28803;52.308;19.096;2023-04-03T10:01:42;9.30;59.30
43185;DHT22;28803;52.308;19.096;2023-04-03T10:04:14;7.50;64.60
43185;DHT22;28803;52.308;19.096;2023-04-03T10:06:46;5.10;71.10
43185;DHT22;28803;52.308;19.096;2023-04-03T10:09:27;5.00;71.30
43185;DHT22;28803;52.308;19.096;2023-04-03T10:12:09;4.50;75.00
43185;DHT22;28803;52.308;19.096;2023-04-03T10:15:01;4.50;77.10
43185;DHT22;28803;52.308;19.096;2023-04-03T10:17:34;4.50;78.00
43185;DHT22;28803;52.308;19.096;2023-04-03T10:28:43;4.20;77.00
43185;DHT22;28803;52.308;19.096;2023-04-03T10:36:56;4.40;74.60
43185;DHT22;28803;52.308;19.096;2023-04-03T10:42:19;4.50;76.60
43185;DHT22;28803;52.308;19.096;2023-04-03T10:47:46;4.80;77.00
43185;DHT22;28803;52.308;19.096;2023-04-03T10:50:39;4.60;77.20
43185;DHT22;28803;52.308;19.096;2023-04-03T10:56:31;4.80;77.40
43185;DHT22;28803;52.308;19.096;2023-04-03T11:01:35;4.90;77.50
43185;DHT22;28803;52.308;19.096;2023-04-03T11:04:06;4.90;78.50
43185;DHT22;28803;52.308;19.096;2023-04-03T11:06:45;5.10;76.40
43185;DHT22;28803;52.308;19.096;2023-04-03T11:09:28;5.10;76.10
43185;DHT22;28803;52.308;19.096;2023-04-03T11:12:06;5.10;76.30
43185;DHT22;28803;52.308;19.096;2023-04-03T11:14:37;5.40;79.10
43185;DHT22;28803;52.308;19.096;2023-04-03T11:17:19;5.50;75.40
43185;DHT22;28803;52.308;19.096;2023-04-03T11:20:04;5.20;76.50
43185;DHT22;28803;52.308;19.096;2023-04-03T11:22:38;5.00;75.60
43185;DHT22;28803;52.308;19.096;2023-04-03T11:27:47;4.50;76.30
43185;DHT22;28803;52.308;19.096;2023-04-03T11:30:20;4.70;77.40
43185;DHT22;28803;52.308;19.096;2023-04-03T11:36:09;5.30;76.30
43185;DHT22;28803;52.308;19.096;2023-04-03T11:38:58;5.40;75.30
43185;DHT22;28803;52.308;19.096;2023-04-03T11:41:31;5.40;77.50
43185;DHT22;28803;52.308;19.096;2023-04-03T11:44:24;5.50;75.00
43185;DHT22;28803;52.308;19.096;2023-04-03T11:46:55;5.10;72.60
43185;DHT22;28803;52.308;19.096;2023-04-03T11:49:53;5.00;78.80
43185;DHT22;28803;52.308;19.096;2023-04-03T12:05:57;5.40;75.00
43185;DHT22;28803;52.308;19.096;2023-04-03T12:08:50;5.10;76.20
43185;DHT22;28803;52.308;19.096;2023-04-03T12:11:26;5.10;76.70
43185;DHT22;28803;52.308;19.096;2023-04-03T12:19:29;5.60;74.80
43185;DHT22;28803;52.308;19.096;2023-04-03T12:22:17;5.50;76.90
43185;DHT22;28803;52.308;19.096;2023-04-03T12:24:52;5.20;76.90
43185;DHT22;28803;52.308;19.096;2023-04-03T12:27:26;5.10;76.40
43185;DHT22;28803;52.308;19.096;2023-04-03T12:33:02;5.00;74.30
43185;DHT22;28803;52.308;19.096;2023-04-03T12:36:13;4.80;76.60
43185;DHT22;28803;52.308;19.096;2023-04-03T12:39:11;5.10;73.80
43185;DHT22;28803;52.308;19.096;2023-04-03T12:42:04;5.10;75.10
43185;DHT22;28803;52.308;19.096;2023-04-03T12:47:31;5.00;74.70
43185;DHT22;28803;52.308;19.096;2023-04-03T12:50:02;4.80;77.60
43185;DHT22;28803;52.308;19.096;2023-04-03T12:52:38;4.80;81.80
43185;DHT22;28803;52.308;19.096;2023-04-03T12:55:18;4.80;77.10
43185;DHT22;28803;52.308;19.096;2023-04-03T12:57:45;5.00;79.30
43185;DHT22;28803;52.308;19.096;2023-04-03T13:02:53;4.90;73.00
43185;DHT22;28803;52.308;19.096;2023-04-03T13:05:22;5.30;74.60
43185;DHT22;28803;52.308;19.096;2023-04-03T13:08:00;5.80;77.50
43185;DHT22;28803;52.308;19.096;2023-04-03T13:10:29;5.90;73.50
43185;DHT22;28803;52.308;19.096;2023-04-03T13:12:58;5.80;76.40
43185;DHT22;28803;52.308;19.096;2023-04-03T13:15:45;5.60;76.50
43185;DHT22;28803;52.308;19.096;2023-04-03T13:18:33;5.40;77.20
43185;DHT22;28803;52.308;19.096;2023-04-03T13:23:35;4.70;77.30
43185;DHT22;28803;52.308;19.096;2023-04-03T13:26:04;4.80;78.60
43185;DHT22;28803;52.308;19.096;2023-04-03T13:28:33;5.20;75.50
43185;DHT22;28803;52.308;19.096;2023-04-03T13:34:15;5.60;74.40
43185;DHT22;28803;52.308;19.096;2023-04-03T13:41:51;5.30;79.50
43185;DHT22;28803;52.308;19.096;2023-04-03T13:46:50;5.30;74.20
43185;DHT22;28803;52.308;19.096;2023-04-03T13:51:49;6.00;74.80
43185;DHT22;28803;52.308;19.096;2023-04-03T13:54:37;6.00;76.20
43185;DHT22;28803;52.308;19.096;2023-04-03T13:57:13;5.90;72.70
43185;DHT22;28803;52.308;19.096;2023-04-03T13:59:41;5.70;73.80
43185;DHT22;28803;52.308;19.096;2023-04-03T14:02:15;5.50;71.70
43185;DHT22;28803;52.308;19.096;2023-04-03T14:04:56;5.70;75.20
43185;DHT22;28803;52.308;19.096;2023-04-03T14:07:28;5.70;74.30
43185;DHT22;28803;52.308;19.096;2023-04-03T14:09:56;5.40;73.00
43185;DHT22;28803;52.308;19.096;2023-04-03T14:12:31;5.20;73.90
43185;DHT22;28803;52.308;19.096;2023-04-03T14:15:01;5.00;72.20
43185;DHT22;28803;52.308;19.096;2023-04-03T14:17:29;4.90;75.80
43185;DHT22;28803;52.308;19.096;2023-04-03T14:19:58;5.30;76.30
43185;DHT22;28803;52.308;19.096;2023-04-03T14:22:34;5.30;76.70
43185;DHT22;28803;52.308;19.096;2023-04-03T14:25:02;5.20;74.10
43185;DHT22;28803;52.308;19.096;2023-04-03T14:27:36;4.90;74.10
43185;DHT22;28803;52.308;19.096;2023-04-03T14:30:08;4.80;72.30
43185;DHT22;28803;52.308;19.096;2023-04-03T14:32:36;4.70;76.70
43185;DHT22;28803;52.308;19.096;2023-04-03T14:35:03;4.70;76.50
43185;DHT22;28803;52.308;19.096;2023-04-03T14:37:31;4.80;76.00
43185;DHT22;28803;52.308;19.096;2023-04-03T14:40:01;5.00;76.00
43185;DHT22;28803;52.308;19.096;2023-04-03T14:42:32;5.10;72.80
43185;DHT22;28803;52.308;19.096;2023-04-03T14:45:01;5.10;72.10
43185;DHT22;28803;52.308;19.096;2023-04-03T14:47:30;5.00;76.10
43185;DHT22;28803;52.308;19.096;2023-04-03T14:50:01;4.80;75.10
43185;DHT22;28803;52.308;19.096;2023-04-03T14:52:34;4.70;77.50
43185;DHT22;28803;52.308;19.096;2023-04-03T14:55:04;4.70;75.30
43185;DHT22;28803;52.308;19.096;2023-04-03T14:57:33;4.60;76.80
43185;DHT22;28803;52.308;19.096;2023-04-03T15:00:00;4.60;78.60
43185;DHT22;28803;52.308;19.096;2023-04-03T15:02:37;4.80;79.50
43185;DHT22;28803;52.308;19.096;2023-04-03T15:05:08;5.10;78.60
43185;DHT22;28803;52.308;19.096;2023-04-03T15:07:42;5.10;76.30
43185;DHT22;28803;52.308;19.096;2023-04-03T15:10:28;4.90;79.00
43185;DHT22;28803;52.308;19.096;2023-04-03T15:12:56;4.50;81.60
43185;DHT22;28803;52.308;19.096;2023-04-03T15:15:24;4.30;81.20
43185;DHT22;28803;52.308;19.096;2023-04-03T15:17:54;4.20;83.00
43185;DHT22;28803;52.308;19.096;2023-04-03T15:20:24;4.20;81.30
43185;DHT22;28803;52.308;19.096;2023-04-03T15:22:53;4.40;79.60
43185;DHT22;28803;52.308;19.096;2023-04-03T15:25:20;4.10;83.20
43185;DHT22;28803;52.308;19.096;2023-04-03T15:27:48;4.10;80.50
43185;DHT22;28803;52.308;19.096;2023-04-03T15:30:18;4.20;82.10
43185;DHT22;28803;52.308;19.096;2023-04-03T15:32:46;4.30;80.80
43185;DHT22;28803;52.308;19.096;2023-04-03T15:35:14;4.40;81.20
43185;DHT22;28803;52.308;19.096;2023-04-03T15:37:42;4.20;81.60
43185;DHT22;28803;52.308;19.096;2023-04-03T15:40:10;4.30;82.70
43185;DHT22;28803;52.308;19.096;2023-04-03T15:42:38;4.10;82.10
43185;DHT22;28803;52.308;19.096;2023-04-03T15:45:06;4.10;83.20
43185;DHT22;28803;52.308;19.096;2023-04-03T15:47:34;3.90;83.70
43185;DHT22;28803;52.308;19.096;2023-04-03T15:50:01;3.80;83.70
43185;DHT22;28803;52.308;19.096;2023-04-03T15:52:29;3.80;83.30
43185;DHT22;28803;52.308;19.096;2023-04-03T15:54:56;3.80;83.60
43185;DHT22;28803;52.308;19.096;2023-04-03T15:57:23;3.90;82.60
43185;DHT22;28803;52.308;19.096;2023-04-03T15:59:53;4.00;84.10
43185;DHT22;28803;52.308;19.096;2023-04-03T16:02:21;4.00;82.10
43185;DHT22;28803;52.308;19.096;2023-04-03T16:04:48;3.90;82.10
43185;DHT22;28803;52.308;19.096;2023-04-03T16:07:16;3.80;82.80
43185;DHT22;28803;52.308;19.096;2023-04-03T16:09:43;3.80;83.30
43185;DHT22;28803;52.308;19.096;2023-04-03T16:12:11;3.80;83.40
43185;DHT22;28803;52.308;19.096;2023-04-03T16:14:38;3.60;83.80
43185;DHT22;28803;52.308;19.096;2023-04-03T16:17:05;3.50;85.00
43185;DHT22;28803;52.308;19.096;2023-04-03T16:19:33;3.50;85.60
43185;DHT22;28803;52.308;19.096;2023-04-03T16:22:01;3.40;85.90
43185;DHT22;28803;52.308;19.096;2023-04-03T16:24:29;3.40;85.70
43185;DHT22;28803;52.308;19.096;2023-04-03T16:26:56;3.30;87.90
43185;DHT22;28803;52.308;19.096;2023-04-03T16:29:24;3.30;87.50
43185;DHT22;28803;52.308;19.096;2023-04-03T16:31:51;3.30;83.70
43185;DHT22;28803;52.308;19.096;2023-04-03T16:34:19;3.30;84.60
43185;DHT22;28803;52.308;19.096;2023-04-03T16:36:47;3.20;87.60
43185;DHT22;28803;52.308;19.096;2023-04-03T16:39:14;3.20;88.40
43185;DHT22;28803;52.308;19.096;2023-04-03T16:41:42;3.10;86.40
43185;DHT22;28803;52.308;19.096;2023-04-03T16:44:09;3.10;87.10
43185;DHT22;28803;52.308;19.096;2023-04-03T16:46:37;2.90;86.70
43185;DHT22;28803;52.308;19.096;2023-04-03T16:49:04;3.00;87.30
43185;DHT22;28803;52.308;19.096;2023-04-03T16:51:31;2.90;89.00
43185;DHT22;28803;52.308;19.096;2023-04-03T16:53:59;2.90;89.40
43185;DHT22;28803;52.308;19.096;2023-04-03T16:56:27;2.90;90.30
43185;DHT22;28803;52.308;19.096;2023-04-03T16:58:54;2.80;90.30
43185;DHT22;28803;52.308;19.096;2023-04-03T17:01:23;2.80;90.50
43185;DHT22;28803;52.308;19.096;2023-04-03T17:03:50;2.70;90.80
43185;DHT22;28803;52.308;19.096;2023-04-03T17:06:20;2.80;90.90
43185;DHT22;28803;52.308;19.096;2023-04-03T17:08:48;2.50;90.20
43185;DHT22;28803;52.308;19.096;2023-04-03T17:11:17;2.50;91.30
43185;DHT22;28803;52.308;19.096;2023-04-03T17:13:44;2.20;91.50
43185;DHT22;28803;52.308;19.096;2023-04-03T17:16:14;2.10;91.90
43185;DHT22;28803;52.308;19.096;2023-04-03T17:18:43;1.90;92.50
43185;DHT22;28803;52.308;19.096;2023-04-03T17:21:12;1.80;92.80
43185;DHT22;28803;52.308;19.096;2023-04-03T17:23:42;1.70;94.10
43185;DHT22;28803;52.308;19.096;2023-04-03T17:26:11;1.50;94.70
43185;DHT22;28803;52.308;19.096;2023-04-03T17:28:39;1.50;94.90